Time;durP1;ratioP1;P1;durP2;ratioP2;P2;SDS_P1;SDS_P2;PMS_P1;PMS_P2;Temp;Humidity;BMP_temperature;BMP_pressure;BME280_temperature;BME280_humidity;BME280_pressure;Samples;Min_cycle;Max_cycle;Signal;HPM_P1;HPM_P2
2023/07/01 00:00:30;;;;;;;;;2.25;2.25;;;;;18.66;62.46;100636.41;5050929;28;8845;-67
2023/07/01 00:03:03;;;;;;;;;5.75;3.00;;;;;18.66;62.33;100636.41;5050829;28;8842;-67
2023/07/01 00:05:30;;;;;;;;;2.00;2.00;;;;;18.66;62.78;100633.66;5050823;28;8873;-66
2023/07/01 00:07:56;;;;;;;;;3.00;3.00;;;;;18.63;62.90;100631.44;5042180;28;8828;-67
2023/07/01 00:10:25;;;;;;;;;2.50;2.50;;;;;18.54;63.35;100625.59;5030346;28;8828;-64
2023/07/01 00:12:52;;;;;;;;;2.25;2.00;;;;;18.51;64.16;100618.78;5036211;28;8864;-68
2023/07/01 00:15:19;;;;;;;;;2.75;2.75;;;;;18.45;64.40;100613.50;5039335;28;8822;-68
2023/07/01 00:17:45;;;;;;;;;3.00;3.00;;;;;18.41;64.73;100601.44;5050718;28;8837;-66
2023/07/01 00:20:12;;;;;;;;;3.00;2.00;;;;;18.29;65.33;100605.09;5034684;28;8863;-67
2023/07/01 00:22:39;;;;;;;;;3.00;3.00;;;;;18.33;65.66;100599.16;5036981;28;8911;-69
2023/07/01 00:25:05;;;;;;;;;3.75;3.75;;;;;18.28;65.34;100597.19;5042709;28;8838;-68
2023/07/01 00:27:32;;;;;;;;;2.00;2.00;;;;;18.27;65.44;100585.47;5049379;28;8873;-67
2023/07/01 00:29:58;;;;;;;;;4.50;4.50;;;;;18.29;65.58;100583.31;5046520;28;8867;-68
2023/07/01 00:32:25;;;;;;;;;4.00;2.25;;;;;18.34;65.40;100584.44;5045370;28;8913;-68
2023/07/01 00:34:51;;;;;;;;;3.50;2.75;;;;;18.38;65.47;100577.41;5030123;28;9609;-68
2023/07/01 00:37:18;;;;;;;;;3.75;3.75;;;;;18.37;65.91;100582.03;5046079;28;8810;-68
2023/07/01 00:39:44;;;;;;;;;4.75;3.25;;;;;18.33;65.57;100583.63;5040500;28;8844;-67
2023/07/01 00:42:12;;;;;;;;;3.50;3.50;;;;;18.35;66.07;100570.59;5048316;28;8826;-67
2023/07/01 00:44:40;;;;;;;;;3.00;3.00;;;;;18.28;66.12;100578.94;5045697;28;9536;-68
2023/07/01 00:47:07;;;;;;;;;4.75;4.25;;;;;18.19;66.70;100569.56;5046986;28;9587;-68
2023/07/01 00:49:39;;;;;;;;;8.00;7.00;;;;;18.14;66.67;100565.91;5046775;28;8825;-66
2023/07/01 00:52:06;;;;;;;;;4.00;4.00;;;;;18.06;67.25;100555.44;5049037;28;8907;-65
2023/07/01 00:54:34;;;;;;;;;3.00;3.00;;;;;18.09;67.34;100554.97;5049974;28;8834;-66
2023/07/01 00:57:03;;;;;;;;;5.00;5.00;;;;;18.12;67.02;100554.47;5046783;28;8940;-65
2023/07/01 00:59:32;;;;;;;;;3.25;3.25;;;;;18.20;66.68;100554.03;5048611;28;8950;-65
2023/07/01 01:02:06;;;;;;;;;5.00;3.75;;;;;18.17;67.20;100549.06;5043187;28;8861;-66
2023/07/01 01:04:38;;;;;;;;;5.50;3.50;;;;;18.10;67.39;100543.78;5047880;28;8992;-66
2023/07/01 01:07:10;;;;;;;;;4.33;4.33;;;;;18.09;67.59;100538.63;5031970;28;8850;-65
2023/07/01 01:09:50;;;;;;;;;6.00;6.00;;;;;18.01;67.40;100542.59;5047319;28;8919;-65
2023/07/01 01:12:20;;;;;;;;;3.25;3.25;;;;;17.98;68.08;100535.72;5027374;28;8922;-66
2023/07/01 01:14:49;;;;;;;;;3.25;3.25;;;;;17.97;68.51;100539.53;5039511;28;8830;-65
2023/07/01 01:17:19;;;;;;;;;5.75;4.50;;;;;18.00;68.04;100516.44;5048500;28;8841;-65
2023/07/01 01:20:12;;;;;;;;;4.33;4.33;;;;;18.01;67.82;100520.81;5043072;28;8821;-66
2023/07/01 01:22:45;;;;;;;;;5.00;5.00;;;;;17.94;68.73;100531.03;5042368;28;8915;-66
2023/07/01 01:25:28;;;;;;;;;6.33;6.33;;;;;17.88;69.31;100513.81;5039387;28;9033;-66
2023/07/01 01:27:56;;;;;;;;;4.00;4.00;;;;;17.95;69.24;100519.09;5048463;28;8997;-66
2023/07/01 01:30:23;;;;;;;;;7.67;7.67;;;;;17.88;69.64;100502.09;5048123;28;8988;-66
2023/07/01 01:32:50;;;;;;;;;9.67;6.67;;;;;17.75;70.03;100506.84;5044798;28;8988;-66
2023/07/01 01:35:17;;;;;;;;;7.67;7.67;;;;;17.76;70.74;100505.75;5046408;28;10130;-65
2023/07/01 01:37:56;;;;;;;;;6.25;6.25;;;;;17.77;70.46;100499.22;5048520;28;9888;-66
2023/07/01 01:40:33;;;;;;;;;9.33;8.33;;;;;17.81;70.61;100488.66;5045892;28;8838;-66
2023/07/01 01:43:08;;;;;;;;;8.67;7.00;;;;;17.77;70.74;100488.34;5034546;28;9020;-67
2023/07/01 01:45:36;;;;;;;;;5.67;5.67;;;;;17.85;70.88;100492.53;5045351;28;9077;-66
2023/07/01 01:48:05;;;;;;;;;5.33;5.33;;;;;17.86;70.08;100486.00;5047564;28;8925;-65
2023/07/01 01:50:38;;;;;;;;;8.00;8.00;;;;;17.83;71.05;100477.53;5048045;28;8937;-66
2023/07/01 01:53:05;;;;;;;;;9.33;6.00;;;;;17.79;71.27;100472.59;5043869;28;8988;-66
2023/07/01 01:55:33;;;;;;;;;6.33;6.33;;;;;17.85;71.08;100478.09;5044971;28;8987;-67
2023/07/01 01:58:00;;;;;;;;;3.50;3.50;;;;;17.89;71.06;100473.78;5035592;28;8931;-66
2023/07/01 02:00:27;;;;;;;;;4.00;4.00;;;;;17.92;70.81;100467.84;5047006;28;8872;-65
2023/07/01 02:02:54;;;;;;;;;9.00;8.00;;;;;17.93;70.79;100466.78;5039426;28;8933;-66
2023/07/01 02:05:20;;;;;;;;;9.00;9.00;;;;;17.88;70.96;100458.53;5030769;28;8924;-66
2023/07/01 02:07:49;;;;;;;;;7.33;7.33;;;;;17.83;71.20;100462.03;5058277;28;9071;-66
2023/07/01 02:10:15;;;;;;;;;7.67;6.33;;;;;17.84;71.39;100450.03;5040850;28;9065;-65
2023/07/01 02:12:42;;;;;;;;;8.00;6.00;;;;;17.85;71.35;100448.97;5023307;28;9199;-65
2023/07/01 02:15:09;;;;;;;;;8.33;8.33;;;;;17.86;71.29;100453.31;5052504;28;9155;-66
2023/07/01 02:17:36;;;;;;;;;9.00;7.67;;;;;17.91;71.36;100447.16;5058450;28;9096;-66
2023/07/01 02:20:04;;;;;;;;;7.67;7.00;;;;;17.89;71.28;100447.38;5045565;28;9248;-66
2023/07/01 02:22:31;;;;;;;;;9.00;9.00;;;;;17.89;71.61;100439.22;5039657;28;9000;-66
2023/07/01 02:24:58;;;;;;;;;6.00;5.33;;;;;17.90;71.59;100440.03;5045792;28;9137;-65
2023/07/01 02:27:25;;;;;;;;;6.33;6.33;;;;;17.88;71.91;100437.56;5043907;28;9103;-65
2023/07/01 02:29:51;;;;;;;;;9.33;8.67;;;;;17.89;72.64;100438.41;5058676;28;9327;-64
2023/07/01 02:32:18;;;;;;;;;13.00;10.67;;;;;17.81;73.17;100431.47;5044715;28;9269;-65
2023/07/01 02:34:45;;;;;;;;;9.67;9.67;;;;;17.74;73.52;100442.56;5038506;28;9171;-68
2023/07/01 02:37:11;;;;;;;;;7.00;7.00;;;;;17.72;73.89;100428.34;5049859;28;9228;-66
2023/07/01 02:39:39;;;;;;;;;7.67;7.67;;;;;17.74;73.94;100430.81;5038601;28;9138;-67
2023/07/01 02:42:06;;;;;;;;;10.00;10.00;;;;;17.71;74.24;100423.16;5046653;28;9202;-67
2023/07/01 02:44:33;;;;;;;;;14.67;12.67;;;;;17.67;74.30;100422.84;5048010;28;9139;-67
2023/07/01 02:47:00;;;;;;;;;11.33;10.67;;;;;17.61;74.97;100429.28;5056046;28;9250;-67
2023/07/01 02:49:26;;;;;;;;;12.00;12.00;;;;;17.56;75.44;100426.47;5058645;28;9161;-67
2023/07/01 02:51:53;;;;;;;;;11.33;10.67;;;;;17.53;75.71;100426.97;5066288;28;9177;-66
2023/07/01 02:54:19;;;;;;;;;18.33;17.67;;;;;17.54;75.61;100423.19;5036810;28;9204;-64
2023/07/01 02:56:46;;;;;;;;;10.00;10.00;;;;;17.55;76.03;100427.56;5051350;28;9243;-64
2023/07/01 02:59:13;;;;;;;;;12.00;11.00;;;;;17.52;76.11;100419.91;5042840;28;9206;-64
2023/07/01 03:01:40;;;;;;;;;14.00;13.00;;;;;17.40;76.75;100417.28;5054813;28;9312;-64
2023/07/01 03:04:07;;;;;;;;;14.00;13.00;;;;;17.39;77.06;100412.09;5049419;28;9310;-65
2023/07/01 03:06:45;;;;;;;;;13.00;12.33;;;;;17.40;77.11;100417.28;5059074;28;9095;-66
2023/07/01 03:09:12;;;;;;;;;12.00;12.00;;;;;17.38;77.24;100405.84;5040315;28;9994;-65
2023/07/01 03:11:38;;;;;;;;;15.00;14.33;;;;;17.33;77.54;100408.47;5014938;28;9336;-67
2023/07/01 03:14:05;;;;;;;;;13.00;13.00;;;;;17.33;77.86;100400.28;5041380;28;9395;-62
2023/07/01 03:16:31;;;;;;;;;13.00;12.67;;;;;17.35;77.92;100397.34;5050443;28;9232;-64
2023/07/01 03:18:58;;;;;;;;;10.00;10.00;;;;;17.36;78.05;100390.81;5054716;28;9300;-66
2023/07/01 03:21:26;;;;;;;;;13.33;11.00;;;;;17.35;78.00;100390.00;5060474;28;9386;-66
2023/07/01 03:23:52;;;;;;;;;16.00;14.33;;;;;17.32;77.97;100378.78;5040467;28;9399;-66
2023/07/01 03:26:20;;;;;;;;;15.00;12.33;;;;;17.28;78.73;100378.47;5041633;28;9367;-67
2023/07/01 03:28:47;;;;;;;;;14.00;13.00;;;;;17.27;78.88;100371.38;5070840;28;9438;-65
2023/07/01 03:31:13;;;;;;;;;15.33;14.67;;;;;17.25;79.18;100366.19;5060842;28;9468;-65
2023/07/01 03:33:40;;;;;;;;;12.00;12.00;;;;;17.26;79.63;100370.56;5058349;28;9378;-67
2023/07/01 03:36:07;;;;;;;;;13.67;11.00;;;;;17.28;79.59;100365.69;5055570;28;9285;-65
2023/07/01 03:38:33;;;;;;;;;11.33;10.00;;;;;17.28;79.46;100354.81;5062022;28;9309;-65
2023/07/01 03:41:00;;;;;;;;;12.00;12.00;;;;;17.32;79.34;100362.47;5044081;28;9311;-65
2023/07/01 03:43:27;;;;;;;;;15.00;15.00;;;;;17.26;79.82;100350.69;5043949;28;9160;-65
2023/07/01 03:45:54;;;;;;;;;15.00;13.00;;;;;17.28;79.47;100348.53;5062089;28;9719;-65
2023/07/01 03:48:21;;;;;;;;;11.67;11.67;;;;;17.27;79.58;100350.44;5056905;28;9249;-64
2023/07/01 03:50:47;;;;;;;;;10.00;10.00;;;;;17.27;80.13;100339.56;5056160;28;9200;-66
2023/07/01 03:53:14;;;;;;;;;11.00;11.00;;;;;17.32;80.16;100343.44;5031318;28;8974;-66
2023/07/01 03:55:41;;;;;;;;;15.00;15.00;;;;;17.33;79.82;100337.72;5038995;28;9325;-66
2023/07/01 03:58:08;;;;;;;;;9.67;9.67;;;;;17.38;79.79;100342.41;5053200;28;9220;-66
2023/07/01 04:00:34;;;;;;;;;18.00;17.67;;;;;17.31;79.48;100337.16;5060572;28;9071;-66
2023/07/01 04:03:08;;;;;;;;;16.00;16.00;;;;;17.27;80.07;100336.84;5047279;28;9408;-65
2023/07/01 04:05:35;;;;;;;;;19.00;15.67;;;;;17.27;80.50;100341.47;5046840;28;9501;-66
2023/07/01 04:08:02;;;;;;;;;14.00;14.00;;;;;17.25;80.59;100330.81;5039112;28;9304;-65
2023/07/01 04:10:29;;;;;;;;;12.67;12.33;;;;;17.24;81.08;100334.63;5047833;28;9335;-64
2023/07/01 04:12:57;;;;;;;;;13.00;13.00;;;;;17.25;81.23;100328.09;5043445;28;9304;-66
2023/07/01 04:15:24;;;;;;;;;12.33;11.67;;;;;17.26;81.11;100327.03;5051519;28;9303;-66
2023/07/01 04:17:51;;;;;;;;;10.00;8.33;;;;;17.26;81.28;100324.31;5063690;28;9278;-65
2023/07/01 04:20:20;;;;;;;;;14.33;14.33;;;;;17.29;81.26;100320.25;5050275;28;9157;-68
2023/07/01 04:22:47;;;;;;;;;16.00;14.00;;;;;17.32;80.95;100321.66;5047625;28;9251;-66
2023/07/01 04:25:14;;;;;;;;;17.67;15.33;;;;;17.29;81.48;100318.34;5061279;28;9363;-66
2023/07/01 04:27:43;;;;;;;;;16.67;15.00;;;;;17.27;81.44;100316.97;5057979;28;9365;-65
2023/07/01 04:30:12;;;;;;;;;13.00;12.00;;;;;17.29;81.84;100310.19;5048332;28;9350;-65
2023/07/01 04:32:39;;;;;;;;;12.00;12.00;;;;;17.27;81.99;100315.06;5045387;28;9227;-65
2023/07/01 04:35:06;;;;;;;;;16.33;16.33;;;;;17.21;81.93;100310.63;5053818;28;9151;-65
2023/07/01 04:37:33;;;;;;;;;11.67;11.67;;;;;17.18;82.88;100313.88;5060878;28;9258;-65
2023/07/01 04:40:00;;;;;;;;;12.00;11.00;;;;;17.22;83.15;100308.75;5050464;28;9174;-65
2023/07/01 04:42:26;;;;;;;;;8.67;8.67;;;;;17.22;82.98;100312.28;5042853;28;9181;-66
2023/07/01 04:44:56;;;;;;;;;14.33;11.00;;;;;17.25;82.97;100311.78;5050992;28;9073;-67
2023/07/01 04:47:23;;;;;;;;;13.00;12.67;;;;;17.23;82.94;100315.84;5060003;28;9886;-65
2023/07/01 04:49:52;;;;;;;;;9.33;9.33;;;;;17.18;83.59;100307.63;5052890;28;9169;-64
2023/07/01 04:52:23;;;;;;;;;8.00;8.00;;;;;17.22;83.38;100301.41;5051747;28;9171;-65
2023/07/01 04:54:51;;;;;;;;;12.00;12.00;;;;;17.23;83.66;100305.78;5061941;28;9138;-65
2023/07/01 04:57:17;;;;;;;;;10.00;10.00;;;;;17.24;83.57;100301.16;5059388;28;9146;-65
2023/07/01 04:59:44;;;;;;;;;8.33;8.33;;;;;17.26;83.70;100299.84;5073102;28;9148;-63
2023/07/01 05:02:11;;;;;;;;;8.67;8.67;;;;;17.24;84.13;100299.25;5058281;28;8986;-66
2023/07/01 05:04:37;;;;;;;;;7.00;7.00;;;;;17.23;84.35;100297.63;5070096;28;9210;-65
2023/07/01 05:07:05;;;;;;;;;6.25;6.25;;;;;17.26;84.60;100294.41;5054595;28;9025;-64
2023/07/01 05:09:31;;;;;;;;;9.67;9.67;;;;;17.29;84.64;100303.94;5049416;28;8841;-64
2023/07/01 05:11:58;;;;;;;;;7.00;7.00;;;;;17.32;84.10;100291.75;5063657;28;9135;-64
2023/07/01 05:14:24;;;;;;;;;8.33;8.00;;;;;17.32;84.60;100298.00;5068651;28;8816;-64
2023/07/01 05:16:51;;;;;;;;;6.25;6.25;;;;;17.34;84.53;100293.13;5047615;28;8920;-64
2023/07/01 05:19:18;;;;;;;;;5.25;5.00;;;;;17.36;84.22;100293.69;5042386;28;8841;-61
2023/07/01 05:21:52;;;;;;;;;6.00;4.33;;;;;17.36;84.14;100285.53;5043933;28;8834;-64
2023/07/01 05:24:19;;;;;;;;;7.00;7.00;;;;;17.38;84.75;100288.00;5054039;28;8906;-63
2023/07/01 05:26:47;;;;;;;;;8.75;8.75;;;;;17.39;84.39;100293.19;5059553;28;8926;-65
2023/07/01 05:29:14;;;;;;;;;4.33;4.00;;;;;17.40;84.77;100283.13;5048408;28;8837;-64
2023/07/01 05:31:41;;;;;;;;;7.67;6.33;;;;;17.37;84.63;100284.44;5045064;28;9028;-63
2023/07/01 05:34:08;;;;;;;;;11.00;11.00;;;;;17.35;84.57;100289.34;5054971;28;8930;-64
2023/07/01 05:36:36;;;;;;;;;10.75;8.75;;;;;17.37;85.25;100283.63;5058924;28;9792;-64
2023/07/01 05:39:03;;;;;;;;;9.50;6.25;;;;;17.38;84.98;100296.16;5039864;28;8944;-64
2023/07/01 05:41:30;;;;;;;;;9.00;7.67;;;;;17.40;85.40;100275.78;5053606;28;8881;-63
2023/07/01 05:43:57;;;;;;;;;8.00;8.00;;;;;17.38;85.77;100290.72;5048661;28;9000;-64
2023/07/01 05:46:23;;;;;;;;;7.67;7.00;;;;;17.39;85.56;100285.03;5045480;28;9020;-65
2023/07/01 05:48:50;;;;;;;;;7.00;7.00;;;;;17.41;85.65;100284.78;5051262;28;8926;-65
2023/07/01 05:51:16;;;;;;;;;8.67;7.67;;;;;17.39;85.67;100276.88;5057808;28;8903;-62
2023/07/01 05:53:45;;;;;;;;;11.67;11.33;;;;;17.39;85.90;100282.31;5035789;28;9076;-63
2023/07/01 05:56:12;;;;;;;;;8.00;8.00;;;;;17.36;86.08;100282.00;5063386;28;9153;-64
2023/07/01 05:58:38;;;;;;;;;12.67;9.00;;;;;17.33;86.39;100274.34;5043573;28;9793;-63
2023/07/01 06:01:05;;;;;;;;;10.33;9.67;;;;;17.39;86.41;100270.63;5053221;28;8959;-65
2023/07/01 06:03:32;;;;;;;;;8.67;7.33;;;;;17.41;86.53;100271.16;5048667;28;9879;-63
2023/07/01 06:05:58;;;;;;;;;7.00;7.00;;;;;17.43;86.70;100271.75;5051284;28;9109;-65
2023/07/01 06:08:25;;;;;;;;;12.33;12.00;;;;;17.42;86.31;100265.50;5061561;28;9056;-63
2023/07/01 06:10:52;;;;;;;;;14.33;14.33;;;;;17.37;86.82;100262.69;5051255;28;9094;-67
2023/07/01 06:13:19;;;;;;;;;10.67;10.67;;;;;17.41;86.89;100265.72;5049533;28;9239;-65
2023/07/01 06:15:47;;;;;;;;;14.33;11.00;;;;;17.39;87.04;100262.44;5053362;28;8910;-63
2023/07/01 06:18:14;;;;;;;;;18.00;15.33;;;;;17.41;86.88;100265.72;5060367;28;9108;-64
2023/07/01 06:20:40;;;;;;;;;14.00;9.67;;;;;17.47;87.25;100270.16;5071012;28;9071;-65
2023/07/01 06:23:07;;;;;;;;;16.33;13.00;;;;;17.46;87.25;100271.22;5053090;28;8905;-66
2023/07/01 06:25:33;;;;;;;;;12.67;8.00;;;;;17.48;87.61;100269.09;5058350;28;9095;-65
2023/07/01 06:28:00;;;;;;;;;8.33;8.33;;;;;17.53;87.58;100272.69;5043460;28;8971;-65
2023/07/01 06:30:26;;;;;;;;;12.00;10.00;;;;;17.55;87.13;100272.44;5056497;28;8927;-63
2023/07/01 06:32:53;;;;;;;;;9.67;8.67;;;;;17.55;87.29;100269.72;5056016;28;9166;-65
2023/07/01 06:35:19;;;;;;;;;11.33;9.00;;;;;17.48;87.23;100272.63;5042903;28;9049;-64
2023/07/01 06:37:46;;;;;;;;;14.00;11.33;;;;;17.45;87.66;100269.59;5054035;28;9079;-63
2023/07/01 06:40:12;;;;;;;;;12.00;11.67;;;;;17.43;88.09;100267.13;5056972;28;9094;-69
2023/07/01 06:42:40;;;;;;;;;14.00;12.67;;;;;17.47;87.96;100260.09;5051841;28;9148;-65
2023/07/01 06:45:07;;;;;;;;;8.00;7.67;;;;;17.52;88.15;100272.94;5045427;28;9073;-64
2023/07/01 06:47:33;;;;;;;;;8.67;8.00;;;;;17.55;88.14;100273.25;5047046;28;9112;-64
2023/07/01 06:50:00;;;;;;;;;13.67;11.33;;;;;17.53;88.02;100269.13;5037749;28;8994;-65
2023/07/01 06:52:28;;;;;;;;;12.33;10.67;;;;;17.56;88.43;100268.63;5050969;28;8932;-64
2023/07/01 06:54:55;;;;;;;;;11.67;10.00;;;;;17.54;88.00;100266.19;5047256;28;9022;-64
2023/07/01 06:57:21;;;;;;;;;8.00;7.00;;;;;17.54;88.18;100263.47;5049973;28;8957;-65
2023/07/01 06:59:48;;;;;;;;;11.25;9.50;;;;;17.53;88.33;100264.50;5045863;28;8915;-65
2023/07/01 07:02:16;;;;;;;;;9.67;9.67;;;;;17.55;88.40;100273.25;5041800;28;8850;-64
2023/07/01 07:04:43;;;;;;;;;5.67;5.67;;;;;17.57;88.42;100267.56;5038557;28;8975;-64
2023/07/01 07:07:09;;;;;;;;;9.33;9.33;;;;;17.60;88.15;100260.78;5058859;28;8929;-64
2023/07/01 07:09:36;;;;;;;;;5.75;5.75;;;;;17.64;88.64;100261.94;5068420;28;8996;-64
2023/07/01 07:12:02;;;;;;;;;9.00;6.50;;;;;17.65;88.41;100258.94;5052289;28;8907;-65
2023/07/01 07:14:29;;;;;;;;;9.75;9.50;;;;;17.68;88.40;100263.06;5040295;28;8826;-64
2023/07/01 07:16:55;;;;;;;;;8.00;8.00;;;;;17.61;88.39;100255.06;5047925;28;8962;-64
2023/07/01 07:19:22;;;;;;;;;8.50;7.50;;;;;17.67;88.32;100258.69;5059487;28;8934;-66
2023/07/01 07:21:49;;;;;;;;;10.00;10.00;;;;;17.69;88.42;100254.63;5056576;28;8839;-66
2023/07/01 07:24:15;;;;;;;;;7.75;6.50;;;;;17.70;88.33;100250.00;5049110;28;8909;-64
2023/07/01 07:26:42;;;;;;;;;12.00;11.00;;;;;17.69;88.45;100257.34;5054453;28;8916;-61
2023/07/01 07:29:09;;;;;;;;;7.75;7.00;;;;;17.71;88.52;100247.03;5048410;28;9055;-63
2023/07/01 07:31:36;;;;;;;;;7.50;7.50;;;;;17.75;88.49;100255.56;5050917;28;8842;-64
2023/07/01 07:34:02;;;;;;;;;7.50;7.50;;;;;17.78;88.11;100255.03;5046170;28;8996;-64
2023/07/01 07:36:29;;;;;;;;;8.00;8.00;;;;;17.78;88.27;100255.03;5066532;28;8861;-64
2023/07/01 07:38:56;;;;;;;;;10.33;10.33;;;;;17.74;88.50;100254.75;5047081;28;8830;-64
2023/07/01 07:41:22;;;;;;;;;7.75;7.75;;;;;17.70;88.85;100267.19;5061245;28;8976;-66
2023/07/01 07:43:49;;;;;;;;;9.00;9.00;;;;;17.67;89.03;100255.97;5046219;28;8846;-65
2023/07/01 07:46:16;;;;;;;;;9.00;9.00;;;;;17.64;89.74;100254.56;5043896;28;8812;-64
2023/07/01 07:48:42;;;;;;;;;8.00;8.00;;;;;17.62;90.53;100258.63;5061618;28;8991;-64
2023/07/01 07:51:09;;;;;;;;;10.50;7.75;;;;;17.70;90.56;100261.75;5033833;28;8930;-65
2023/07/01 07:53:35;;;;;;;;;3.50;3.50;;;;;17.80;90.61;100255.59;5041946;28;8845;-64
2023/07/01 07:56:02;;;;;;;;;6.00;5.75;;;;;17.85;90.19;100257.53;5038492;28;8848;-65
2023/07/01 07:58:29;;;;;;;;;6.75;5.75;;;;;17.87;90.21;100255.41;5052871;28;8815;-64
2023/07/01 08:00:55;;;;;;;;;7.75;6.00;;;;;17.87;90.34;100256.22;5059782;28;8831;-65
2023/07/01 08:03:22;;;;;;;;;4.50;4.50;;;;;17.92;89.90;100247.28;5063245;28;9537;-64
2023/07/01 08:05:49;;;;;;;;;4.50;3.75;;;;;17.96;89.99;100251.94;5054292;28;8849;-64
2023/07/01 08:08:16;;;;;;;;;3.50;3.50;;;;;17.96;89.59;100243.78;5062587;28;9541;-64
2023/07/01 08:10:45;;;;;;;;;3.50;3.50;;;;;17.98;90.03;100252.50;5051036;28;8867;-62
2023/07/01 08:13:13;;;;;;;;;4.25;4.25;;;;;18.02;89.81;100245.47;5058329;28;8928;-63
2023/07/01 08:15:42;;;;;;;;;5.75;5.75;;;;;18.04;89.91;100248.75;5053656;28;8856;-64
2023/07/01 08:18:09;;;;;;;;;4.00;3.00;;;;;18.02;89.89;100245.47;5056367;28;9666;-64
2023/07/01 08:20:35;;;;;;;;;1.75;1.75;;;;;18.05;90.05;100249.56;5055503;28;8843;-64
2023/07/01 08:23:02;;;;;;;;;2.00;2.00;;;;;18.10;90.08;100249.63;5053600;28;8835;-66
2023/07/01 08:25:28;;;;;;;;;1.00;1.00;;;;;18.15;90.08;100241.50;5044828;28;8801;-64
2023/07/01 08:27:54;;;;;;;;;1.75;1.75;;;;;18.16;89.93;100254.03;5041797;28;8951;-65
2023/07/01 08:30:22;;;;;;;;;2.50;1.50;;;;;18.17;89.83;100249.41;5057191;28;8822;-64
2023/07/01 08:32:52;;;;;;;;;2.00;2.00;;;;;18.16;89.83;100254.03;5046779;28;8829;-66
2023/07/01 08:35:19;;;;;;;;;1.00;1.00;;;;;18.17;89.92;100250.22;5034286;28;8859;-64
2023/07/01 08:37:45;;;;;;;;;1.75;0.00;;;;;18.11;89.70;100245.84;5051674;28;8833;-64
2023/07/01 08:40:12;;;;;;;;;2.00;2.00;;;;;18.12;90.07;100252.91;5040028;28;8833;-64
2023/07/01 08:42:48;;;;;;;;;2.50;2.50;;;;;18.17;89.94;100249.41;5048391;28;8820;-65
2023/07/01 08:45:14;;;;;;;;;1.75;1.00;;;;;18.18;90.01;100245.59;5043146;28;8870;-65
2023/07/01 08:47:41;;;;;;;;;0.75;0.75;;;;;18.16;89.91;100253.22;5057540;28;8841;-65
2023/07/01 08:50:09;;;;;;;;;0.00;0.00;;;;;18.16;90.03;100243.16;5047639;28;8826;-64
2023/07/01 08:52:41;;;;;;;;;0.00;0.00;;;;;18.20;90.47;100248.91;5041278;28;8922;-64
2023/07/01 08:55:12;;;;;;;;;0.00;0.00;;;;;18.21;90.39;100245.09;5041108;28;8852;-64
2023/07/01 08:57:40;;;;;;;;;0.00;0.00;;;;;18.25;90.69;100244.31;5054429;28;8830;-66
2023/07/01 09:00:09;;;;;;;;;0.00;0.00;;;;;18.33;90.75;100247.66;5040765;28;8864;-66
2023/07/01 09:02:36;;;;;;;;;1.00;0.00;;;;;18.38;90.67;100245.78;5037682;28;8825;-65
2023/07/01 09:05:04;;;;;;;;;0.00;0.00;;;;;18.41;90.21;100242.53;5050817;28;8814;-65
2023/07/01 09:07:31;;;;;;;;;0.00;0.00;;;;;18.38;90.13;100244.97;5045062;28;8934;-64
2023/07/01 09:10:00;;;;;;;;;0.00;0.00;;;;;18.35;90.11;100240.88;5039372;28;8854;-64
2023/07/01 09:12:27;;;;;;;;;0.00;0.00;;;;;18.33;90.09;100247.66;5035437;28;8949;-66
2023/07/01 09:15:01;;;;;;;;;0.00;0.00;;;;;18.29;89.84;100245.44;5052944;28;8888;-66
2023/07/01 09:17:36;;;;;;;;;0.25;0.25;;;;;18.24;89.79;100250.03;5058756;28;9010;-63
2023/07/01 09:20:05;;;;;;;;;1.00;1.00;;;;;18.23;90.42;100254.66;5057191;28;8849;-66
2023/07/01 09:22:34;;;;;;;;;1.25;1.25;;;;;18.23;90.41;100245.63;5057764;28;8846;-66
2023/07/01 09:25:00;;;;;;;;;5.00;2.00;;;;;18.25;90.30;100252.47;5059224;28;9514;-64
2023/07/01 09:27:46;;;;;;;;;1.75;1.25;;;;;18.22;90.14;100253.00;5051288;28;8866;-64
2023/07/01 09:30:24;;;;;;;;;2.00;1.00;;;;;18.23;90.06;100257.38;5069277;28;8950;-64
2023/07/01 09:32:52;;;;;;;;;0.50;0.50;;;;;18.26;90.55;100250.56;5068523;28;8892;-66
2023/07/01 09:35:18;;;;;;;;;2.00;2.00;;;;;18.31;90.67;100252.53;5059429;28;8826;-66
2023/07/01 09:37:45;;;;;;;;;5.25;3.00;;;;;18.34;90.37;100252.00;5064738;28;8826;-66
2023/07/01 09:40:18;;;;;;;;;3.00;3.00;;;;;18.34;90.21;100249.28;5057355;28;8995;-67
2023/07/01 09:42:54;;;;;;;;;6.25;4.50;;;;;18.33;89.86;100253.91;5058401;28;8874;-66
2023/07/01 09:45:21;;;;;;;;;3.00;3.00;;;;;18.31;90.28;100257.97;5052863;28;8919;-65
2023/07/01 09:47:51;;;;;;;;;3.25;3.00;;;;;18.31;90.06;100247.91;5049064;28;8859;-66
2023/07/01 09:50:28;;;;;;;;;4.50;3.00;;;;;18.37;89.87;100251.50;5049556;28;9551;-67
2023/07/01 09:52:56;;;;;;;;;2.75;2.50;;;;;18.40;90.02;100238.19;5043222;28;8833;-67
2023/07/01 09:55:23;;;;;;;;;6.50;5.50;;;;;18.43;90.10;100240.38;5053793;28;8880;-67
2023/07/01 09:57:52;;;;;;;;;5.00;3.25;;;;;18.49;89.86;100238.50;5056438;28;8862;-65
2023/07/01 10:00:20;;;;;;;;;8.00;6.75;;;;;18.49;89.54;100238.50;5050103;28;8883;-64
2023/07/01 10:02:47;;;;;;;;;7.00;7.00;;;;;18.50;89.49;100240.97;5050755;28;8852;-65
2023/07/01 10:05:14;;;;;;;;;3.00;3.00;;;;;18.54;89.54;100246.72;5067844;28;8831;-65
2023/07/01 10:07:42;;;;;;;;;5.25;4.75;;;;;18.56;89.26;100244.56;5031911;28;8910;-64
2023/07/01 10:10:12;;;;;;;;;10.75;8.00;;;;;18.54;89.20;100236.63;5047544;28;8858;-65
2023/07/01 10:12:41;;;;;;;;;4.00;4.00;;;;;18.56;89.15;100241.03;5060817;28;8839;-65
2023/07/01 10:15:09;;;;;;;;;6.00;6.00;;;;;18.61;89.34;100243.78;5062188;28;9546;-64
2023/07/01 10:17:46;;;;;;;;;5.75;5.00;;;;;18.62;89.01;100238.03;5052024;28;9488;-65
2023/07/01 10:20:27;;;;;;;;;6.00;4.50;;;;;18.62;88.68;100245.41;5029359;28;8834;-64
2023/07/01 10:22:55;;;;;;;;;4.25;4.25;;;;;18.59;88.46;100241.28;5053507;28;8823;-64
2023/07/01 10:25:31;;;;;;;;;5.75;4.00;;;;;18.62;88.43;100242.69;5055097;28;8862;-64
2023/07/01 10:28:01;;;;;;;;;6.75;5.00;;;;;18.66;88.62;100233.72;5054157;28;8849;-64
2023/07/01 10:30:53;;;;;;;;;5.00;5.00;;;;;18.67;88.23;100238.06;5038955;28;8937;-64
2023/07/01 10:33:33;;;;;;;;;5.00;4.00;;;;;18.66;88.21;100239.16;5049015;28;8856;-65
2023/07/01 10:36:09;;;;;;;;;4.50;4.50;;;;;18.67;88.02;100248.16;5060678;28;8838;-67
2023/07/01 10:38:37;;;;;;;;;6.50;6.50;;;;;18.66;88.00;100252.78;5052512;28;8827;-65
2023/07/01 10:41:07;;;;;;;;;3.00;3.00;;;;;18.66;87.74;100246.53;5052172;28;8834;-64
2023/07/01 10:43:38;;;;;;;;;5.25;5.25;;;;;18.64;87.54;100254.97;5054372;28;8834;-65
2023/07/01 10:46:10;;;;;;;;;6.50;4.25;;;;;18.61;87.53;100250.03;5042844;28;8842;-64
2023/07/01 10:48:42;;;;;;;;;5.50;4.25;;;;;18.60;87.32;100259.31;5048214;28;8864;-65
2023/07/01 10:51:09;;;;;;;;;5.25;3.75;;;;;18.57;87.38;100253.56;5061011;28;8819;-65
2023/07/01 10:54:02;;;;;;;;;5.50;4.00;;;;;18.59;86.93;100259.56;5053695;28;8846;-65
2023/07/01 10:56:31;;;;;;;;;3.75;3.75;;;;;18.58;87.07;100258.72;5050542;28;8830;-66
2023/07/01 10:59:17;;;;;;;;;5.50;5.50;;;;;18.59;86.78;100260.38;5053752;28;9009;-66
2023/07/01 11:01:45;;;;;;;;;8.25;7.25;;;;;18.61;86.83;100263.69;5053929;28;8827;-64
2023/07/01 11:04:11;;;;;;;;;5.50;4.00;;;;;18.64;86.72;100260.44;5058075;28;8838;-65
2023/07/01 11:06:49;;;;;;;;;8.50;7.00;;;;;18.66;86.19;100258.25;5065376;28;8819;-64
2023/07/01 11:09:27;;;;;;;;;6.75;6.25;;;;;18.67;86.18;100259.06;5040328;28;8844;-64
2023/07/01 11:11:55;;;;;;;;;7.00;5.00;;;;;18.71;85.79;100255.59;5060036;28;8826;-65
2023/07/01 11:14:30;;;;;;;;;4.00;4.00;;;;;18.76;85.50;100260.28;5044622;28;8808;-67
2023/07/01 11:17:11;;;;;;;;;3.75;3.75;;;;;18.84;85.39;100258.94;5046745;28;8830;-66
2023/07/01 11:19:38;;;;;;;;;4.25;4.25;;;;;18.85;85.10;100260.59;5050956;28;8887;-64
2023/07/01 11:22:05;;;;;;;;;4.00;4.00;;;;;18.90;84.82;100257.91;5050796;28;8857;-64
2023/07/01 11:24:32;;;;;;;;;3.00;3.00;;;;;18.93;84.96;100260.09;5050849;28;8842;-64
2023/07/01 11:27:01;;;;;;;;;4.00;3.25;;;;;18.96;84.75;100263.13;5042782;28;8849;-63
2023/07/01 11:29:28;;;;;;;;;5.25;5.00;;;;;18.92;84.18;100255.72;5047228;28;8860;-63
2023/07/01 11:32:07;;;;;;;;;4.00;4.00;;;;;18.90;83.88;100258.72;5046928;28;8866;-64
2023/07/01 11:34:33;;;;;;;;;6.25;4.00;;;;;18.93;83.78;100260.91;5047321;28;8833;-66